createdAt,value
2018-04-10T00:01:34.376Z,47.20
2018-04-10T00:04:02.612Z,47.30
2018-04-10T00:06:30.100Z,46.17
2018-04-10T00:08:58.356Z,48.20
2018-04-10T00:11:25.820Z,44.00
2018-04-10T00:13:53.304Z,48.03
2018-04-10T00:16:21.540Z,46.40
2018-04-10T00:21:40.312Z,49.00
2018-04-10T00:24:07.804Z,46.63
2018-04-10T00:26:36.048Z,45.77
2018-04-10T00:29:03.516Z,44.03
2018-04-10T00:31:31.773Z,44.87
2018-04-10T00:33:59.248Z,43.77
2018-04-10T00:36:27.504Z,41.13
2018-04-10T00:38:54.976Z,44.77
2018-04-10T00:41:23.256Z,43.33
2018-04-10T00:43:51.491Z,42.13
2018-04-10T00:46:18.960Z,41.73
2018-04-10T00:48:46.444Z,42.03
2018-04-10T00:51:14.680Z,40.43
2018-04-10T00:53:42.180Z,42.37
2018-04-10T00:56:10.414Z,38.50
2018-04-10T00:58:37.900Z,43.07
2018-04-10T01:01:06.383Z,41.43
2018-04-10T01:03:34.620Z,44.03
2018-04-10T01:06:02.145Z,40.60
2018-04-10T01:08:29.664Z,38.03
2018-04-10T01:10:57.157Z,40.03
2018-04-10T01:13:24.636Z,46.73
2018-04-10T01:15:52.441Z,43.60
2018-04-10T01:18:19.911Z,42.53
2018-04-10T01:20:48.147Z,46.00
2018-04-10T01:23:15.628Z,42.97
2018-04-10T01:25:43.868Z,37.57
2018-04-10T01:28:11.356Z,41.00
2018-04-10T01:30:39.601Z,39.07
2018-04-10T01:33:07.093Z,41.03
2018-04-10T01:35:35.328Z,38.00
2018-04-10T01:38:02.802Z,37.63
2018-04-10T01:40:30.289Z,35.97
2018-04-10T01:42:58.524Z,31.23
2018-04-10T01:45:26.052Z,36.97
2018-04-10T01:47:53.526Z,33.63
2018-04-10T01:50:21.320Z,30.70
2018-04-10T01:52:48.788Z,31.33
2018-04-10T01:55:17.023Z,30.20
2018-04-10T01:57:44.592Z,30.33
2018-04-10T02:00:12.105Z,29.93
2018-04-10T02:02:39.578Z,30.07
2018-04-10T02:05:07.064Z,28.17
2018-04-10T02:07:34.536Z,30.13
2018-04-10T02:10:02.776Z,32.53
2018-04-10T02:12:30.261Z,29.33
2018-04-10T02:14:57.736Z,32.70
2018-04-10T02:17:26.042Z,29.97
2018-04-10T02:19:53.594Z,30.30
2018-04-10T02:22:21.092Z,29.33
2018-04-10T02:24:48.565Z,29.20
2018-04-10T02:27:16.814Z,32.83
2018-04-10T02:29:44.300Z,33.50
2018-04-10T02:32:11.776Z,33.23
2018-04-10T02:34:40.024Z,31.40
2018-04-10T02:37:07.496Z,30.73
2018-04-10T02:39:36.065Z,28.93
2018-04-10T02:42:03.536Z,34.60
2018-04-10T02:44:31.780Z,33.20
2018-04-10T02:46:59.269Z,30.27
2018-04-10T02:49:27.507Z,30.97
2018-04-10T02:51:55.005Z,31.90
2018-04-10T02:54:22.488Z,33.07
2018-04-10T02:56:49.992Z,32.67
2018-04-10T02:59:17.463Z,32.30
2018-04-10T03:01:45.696Z,33.40
2018-04-10T03:04:13.184Z,29.60
2018-04-10T03:06:41.420Z,27.90
2018-04-10T03:09:09.068Z,34.33
2018-04-10T03:11:36.568Z,37.20
2018-04-10T03:14:04.828Z,30.90
2018-04-10T03:16:32.301Z,29.00
2018-04-10T03:19:00.535Z,28.77
2018-04-10T03:21:28.020Z,28.80
2018-04-10T03:23:55.496Z,29.33
2018-04-10T03:26:23.750Z,30.77
2018-04-10T03:28:51.233Z,27.23
2018-04-10T03:31:19.485Z,25.90
2018-04-10T03:33:46.988Z,29.23
2018-04-10T03:36:14.460Z,29.63
2018-04-10T03:38:41.973Z,26.83
2018-04-10T03:41:10.204Z,23.60
2018-04-10T03:43:37.687Z,24.27
2018-04-10T03:46:05.160Z,19.50
2018-04-10T03:48:33.742Z,22.07
2018-04-10T03:51:01.976Z,21.97
2018-04-10T03:53:29.448Z,20.87
2018-04-10T03:55:56.932Z,20.10
2018-04-10T03:58:25.167Z,17.37
2018-04-10T04:00:52.656Z,17.17
2018-04-10T04:03:20.894Z,16.20
2018-04-10T04:05:48.384Z,17.63
2018-04-10T04:08:16.629Z,14.73
2018-04-10T04:10:44.104Z,15.23
2018-04-10T04:13:11.588Z,16.97
2018-04-10T04:15:39.160Z,15.80
2018-04-10T04:18:06.665Z,18.20
2018-04-10T04:20:46.945Z,14.00
2018-04-10T04:23:15.352Z,14.80
2018-04-10T04:25:42.851Z,12.90
2018-04-10T04:28:10.332Z,17.13
2018-04-10T04:30:38.560Z,13.90
2018-04-10T04:33:06.051Z,13.87
2018-04-10T04:35:33.521Z,12.90
2018-04-10T04:38:00.992Z,11.83
2018-04-10T04:40:29.299Z,14.90
2018-04-10T04:42:56.766Z,12.00
2018-04-10T04:45:24.280Z,11.30
2018-04-10T04:47:52.512Z,12.57
2018-04-10T04:50:20.304Z,14.17
2018-04-10T04:52:47.770Z,9.60
2018-04-10T04:55:16.004Z,12.47
2018-04-10T04:57:43.521Z,13.13
2018-04-10T05:00:10.997Z,10.50
2018-04-10T05:02:38.480Z,11.37
2018-04-10T05:05:05.955Z,12.93
2018-04-10T05:07:33.464Z,10.40
2018-04-10T05:10:00.932Z,10.87
2018-04-10T05:12:28.403Z,11.33
2018-04-10T05:14:55.884Z,11.57
2018-04-10T05:17:23.348Z,10.77
2018-04-10T05:19:51.604Z,12.97
2018-04-10T05:22:19.076Z,14.87
2018-04-10T05:24:47.344Z,11.27
2018-04-10T05:27:14.812Z,15.90
2018-04-10T05:29:43.049Z,13.63
2018-04-10T05:32:10.528Z,14.57
2018-04-10T05:34:38.013Z,13.30
2018-04-10T05:37:05.520Z,13.50
2018-04-10T05:39:32.992Z,13.10
2018-04-10T05:42:00.480Z,13.37
2018-04-10T05:44:27.949Z,12.60
2018-04-10T05:46:55.416Z,13.83
2018-04-10T05:49:22.908Z,12.57
2018-04-10T05:51:50.375Z,10.43
2018-04-10T05:54:18.636Z,11.40
2018-04-10T05:56:46.103Z,13.10
2018-04-10T05:59:13.596Z,8.70
2018-04-10T06:01:41.064Z,12.73
2018-04-10T06:04:08.540Z,9.93
2018-04-10T06:06:36.024Z,8.73
2018-04-10T06:09:05.312Z,8.00
2018-04-10T06:11:32.796Z,5.17
2018-04-10T06:14:01.025Z,8.23
2018-04-10T06:16:28.508Z,5.80
2018-04-10T06:18:55.976Z,4.40
2018-04-10T06:21:24.216Z,7.00
2018-04-10T06:23:51.697Z,4.93
2018-04-10T06:26:19.160Z,5.67
2018-04-10T06:28:46.644Z,6.83
2018-04-10T06:31:14.108Z,4.80
2018-04-10T06:33:41.572Z,4.33
2018-04-10T06:36:09.054Z,6.10
2018-04-10T06:38:36.521Z,4.10
2018-04-10T06:41:04.002Z,5.13
2018-04-10T06:43:31.478Z,3.70
2018-04-10T06:45:59.728Z,6.23
2018-04-10T06:48:27.204Z,3.43
2018-04-10T06:50:54.784Z,4.50
2018-04-10T06:53:22.279Z,5.90
2018-04-10T06:55:49.748Z,2.67
2018-04-10T06:58:17.252Z,4.43
2018-04-10T07:00:44.712Z,4.43
2018-04-10T07:03:12.524Z,4.73
2018-04-10T07:05:39.988Z,7.43
2018-04-10T07:08:07.462Z,3.47
2018-04-10T07:10:35.753Z,6.57
2018-04-10T07:13:03.948Z,2.93
2018-04-10T07:15:31.457Z,5.83
2018-04-10T07:17:59.688Z,3.73
2018-04-10T07:20:27.993Z,3.60
2018-04-10T07:22:55.456Z,3.57
2018-04-10T07:25:23.688Z,3.63
2018-04-10T07:27:51.176Z,3.03
2018-04-10T07:30:18.644Z,3.93
2018-04-10T07:32:46.967Z,2.87
2018-04-10T07:35:14.438Z,4.33
2018-04-10T07:37:41.920Z,2.60
2018-04-10T07:40:10.171Z,4.00
2018-04-10T07:42:37.676Z,3.33
2018-04-10T07:45:05.973Z,3.00
2018-04-10T07:47:33.432Z,4.53
2018-04-10T07:50:00.914Z,4.37
2018-04-10T07:52:28.376Z,6.93
2018-04-10T07:54:55.856Z,4.00
2018-04-10T07:57:24.092Z,5.30
2018-04-10T07:59:51.600Z,6.30
2018-04-10T08:02:19.853Z,5.50
2018-04-10T08:04:47.390Z,3.47
2018-04-10T08:07:14.816Z,5.60
2018-04-10T08:09:42.314Z,2.93
2018-04-10T08:12:09.789Z,4.87
2018-04-10T08:14:38.045Z,6.30
2018-04-10T08:17:05.508Z,4.10
2018-04-10T08:19:32.988Z,4.20
2018-04-10T08:22:01.216Z,4.50
2018-04-10T08:24:28.701Z,4.90
2018-04-10T08:26:56.165Z,7.07
2018-04-10T08:29:24.404Z,7.60
2018-04-10T08:31:51.880Z,7.80
2018-04-10T08:34:19.348Z,14.43
2018-04-10T08:36:47.604Z,14.90
2018-04-10T08:39:15.068Z,20.10
2018-04-10T08:41:42.560Z,18.90
2018-04-10T08:44:10.028Z,18.73
2018-04-10T08:46:37.548Z,21.37
2018-04-10T08:49:05.784Z,21.20
2018-04-10T08:51:33.268Z,18.77
2018-04-10T08:54:01.504Z,24.27
2018-04-10T08:56:28.988Z,21.30
2018-04-10T08:58:56.456Z,21.47
2018-04-10T09:01:24.708Z,20.90
2018-04-10T09:03:52.180Z,20.87
2018-04-10T09:06:19.672Z,18.90
2018-04-10T09:08:47.148Z,23.00
2018-04-10T09:11:14.620Z,20.93
2018-04-10T09:13:42.112Z,18.20
2018-04-10T09:16:10.361Z,20.37
2018-04-10T09:18:37.848Z,24.73
2018-04-10T09:21:06.089Z,21.17
2018-04-10T09:23:33.581Z,20.53
2018-04-10T09:26:01.886Z,25.03
2018-04-10T09:28:29.369Z,20.70
2018-04-10T09:30:56.902Z,23.13
2018-04-10T09:33:24.388Z,19.07
2018-04-10T09:35:51.976Z,18.73
2018-04-10T09:38:20.236Z,20.83
2018-04-10T09:40:47.712Z,16.53
2018-04-10T09:43:15.965Z,20.70
2018-04-10T09:45:43.440Z,19.53
2018-04-10T09:48:11.695Z,18.90
2018-04-10T09:50:39.172Z,20.87
2018-04-10T09:53:07.416Z,20.77
2018-04-10T09:55:34.904Z,18.70
2018-04-10T09:58:03.145Z,20.20
2018-04-10T10:00:36.320Z,16.47
2018-04-10T10:03:03.794Z,18.20
2018-04-10T10:05:31.280Z,19.00
2018-04-10T10:07:59.520Z,20.40
2018-04-10T10:10:27.008Z,17.37
2018-04-10T10:12:55.283Z,15.63
2018-04-10T10:15:22.744Z,15.37
2018-04-10T10:17:50.978Z,15.37
2018-04-10T10:20:18.460Z,18.47
2018-04-10T10:22:45.937Z,17.10
2018-04-10T10:25:14.192Z,17.93
2018-04-10T10:27:41.655Z,17.80
2018-04-10T10:30:09.905Z,16.43
2018-04-10T10:32:37.373Z,16.43
2018-04-10T10:35:04.876Z,14.17
2018-04-10T10:37:32.344Z,14.03
2018-04-10T10:39:59.813Z,13.13
2018-04-10T10:42:27.300Z,13.40
2018-04-10T10:44:54.764Z,8.67
2018-04-10T10:47:23.034Z,10.53
2018-04-10T10:49:50.500Z,5.70
2018-04-10T10:52:17.976Z,7.37
2018-04-10T10:54:45.440Z,8.10
2018-04-10T10:57:12.920Z,7.63
2018-04-10T10:59:40.396Z,7.83
2018-04-10T11:02:07.880Z,7.03
2018-04-10T11:04:36.112Z,5.43
2018-04-10T11:07:03.604Z,6.37
2018-04-10T11:09:31.907Z,5.87
2018-04-10T11:12:00.139Z,6.27
2018-04-10T11:14:28.368Z,6.47
2018-04-10T11:16:55.856Z,5.23
2018-04-10T11:19:23.316Z,5.60
2018-04-10T11:21:50.786Z,4.37
2018-04-10T11:24:18.266Z,5.63
2018-04-10T11:26:46.500Z,5.93
2018-04-10T11:29:13.986Z,7.17
2018-04-10T11:31:42.220Z,7.40
2018-04-10T11:34:09.704Z,6.50
2018-04-10T11:36:37.168Z,8.93
2018-04-10T11:39:06.168Z,4.80
2018-04-10T11:41:33.612Z,6.73
2018-04-10T11:44:01.113Z,6.53
2018-04-10T11:46:28.580Z,6.50
2018-04-10T11:48:56.060Z,6.60
2018-04-10T11:51:23.534Z,6.03
2018-04-10T11:53:51.012Z,6.23
2018-04-10T11:56:19.255Z,9.17
2018-04-10T11:58:46.740Z,6.77
2018-04-10T12:01:14.972Z,8.63
2018-04-10T12:03:42.760Z,6.13
2018-04-10T12:06:11.078Z,6.47
2018-04-10T12:08:38.548Z,10.47
2018-04-10T12:11:06.036Z,6.80
2018-04-10T12:13:33.504Z,6.97
2018-04-10T12:16:01.047Z,7.83
2018-04-10T12:18:28.485Z,8.23
2018-04-10T12:20:55.964Z,8.23
2018-04-10T12:23:23.432Z,5.23
2018-04-10T12:25:51.028Z,5.40
2018-04-10T12:28:18.528Z,8.50
2018-04-10T12:30:46.001Z,6.77
2018-04-10T12:33:14.232Z,5.10
2018-04-10T12:35:41.716Z,6.47
2018-04-10T12:38:09.176Z,5.90
2018-04-10T12:40:36.665Z,12.17
2018-04-10T12:43:04.915Z,5.23
2018-04-10T12:45:32.372Z,7.27
2018-04-10T12:48:00.624Z,4.93
2018-04-10T12:50:28.084Z,7.93
2018-04-10T12:52:55.568Z,7.20
2018-04-10T12:55:23.804Z,5.27
2018-04-10T12:57:51.286Z,5.00
2018-04-10T13:00:18.744Z,8.23
2018-04-10T13:02:46.240Z,4.87
2018-04-10T13:05:13.702Z,8.07
2018-04-10T13:07:41.257Z,9.23
2018-04-10T13:10:08.733Z,8.57
2018-04-10T13:12:36.271Z,5.47
2018-04-10T13:15:03.737Z,5.17
2018-04-10T13:17:31.280Z,5.67
2018-04-10T13:19:58.740Z,6.77
2018-04-10T13:22:26.293Z,5.93
2018-04-10T13:24:53.756Z,7.03
2018-04-10T13:27:21.224Z,9.53
2018-04-10T13:29:48.705Z,8.90
2018-04-10T13:32:16.175Z,8.27
2018-04-10T13:34:43.655Z,6.90
2018-04-10T13:37:11.230Z,7.03
2018-04-10T13:39:38.708Z,7.20
2018-04-10T13:42:06.175Z,9.97
2018-04-10T13:44:33.682Z,6.27
2018-04-10T13:47:01.165Z,8.83
2018-04-10T13:49:28.652Z,6.77
2018-04-10T13:51:56.117Z,6.20
2018-04-10T13:54:23.649Z,5.23
2018-04-10T13:56:51.088Z,5.00
2018-04-10T13:59:18.563Z,7.57
2018-04-10T14:01:46.028Z,7.13
2018-04-10T14:04:13.512Z,8.83
2018-04-10T14:06:41.756Z,9.57
2018-04-10T14:09:09.220Z,7.53
2018-04-10T14:11:36.705Z,10.73
2018-04-10T14:14:04.940Z,9.73
2018-04-10T14:16:32.425Z,7.27
2018-04-10T14:18:59.888Z,7.10
2018-04-10T14:21:28.201Z,8.20
2018-04-10T14:23:55.686Z,11.00
2018-04-10T14:26:23.174Z,12.47
2018-04-10T14:28:51.414Z,7.97
2018-04-10T14:31:18.904Z,8.30
2018-04-10T14:33:47.132Z,6.23
2018-04-10T14:36:14.624Z,7.33
2018-04-10T14:38:42.089Z,6.23
2018-04-10T14:41:10.348Z,9.00
2018-04-10T14:43:37.813Z,6.67
2018-04-10T14:46:05.317Z,7.63
2018-04-10T14:48:32.797Z,7.83
2018-04-10T14:51:00.296Z,7.67
2018-04-10T14:53:28.575Z,7.80
2018-04-10T14:55:56.822Z,8.80
2018-04-10T14:58:24.325Z,7.33
2018-04-10T15:00:51.818Z,10.87
2018-04-10T15:03:19.296Z,3.73
2018-04-10T15:05:46.842Z,6.67
2018-04-10T15:08:14.357Z,5.90
2018-04-10T15:10:41.826Z,4.67
2018-04-10T15:13:09.308Z,4.47
2018-04-10T15:15:36.769Z,4.37
2018-04-10T15:18:04.277Z,8.20
2018-04-10T15:20:31.746Z,5.90
2018-04-10T15:22:59.228Z,7.57
2018-04-10T15:25:26.711Z,4.33
2018-04-10T15:27:54.208Z,9.63
2018-04-10T15:30:21.680Z,3.50
2018-04-10T15:32:49.140Z,5.83
2018-04-10T15:35:16.621Z,8.70
2018-04-10T15:37:44.154Z,5.97
2018-04-10T15:40:11.625Z,8.60
2018-04-10T15:42:39.144Z,7.20
2018-04-10T15:45:06.624Z,7.10
2018-04-10T15:47:34.157Z,8.40
2018-04-10T15:50:01.718Z,6.73
2018-04-10T15:52:29.188Z,6.43
2018-04-10T15:54:56.684Z,6.23
2018-04-10T15:57:24.149Z,6.77
2018-04-10T15:59:52.396Z,8.30
2018-04-10T16:02:19.898Z,7.37
2018-04-10T16:04:47.407Z,7.93
2018-04-10T16:07:14.872Z,11.30
2018-04-10T16:09:42.403Z,7.17
2018-04-10T16:12:09.853Z,8.57
2018-04-10T16:14:37.329Z,5.97
2018-04-10T16:17:04.812Z,8.83
2018-04-10T16:19:32.313Z,6.27
2018-04-10T16:21:59.789Z,7.07
2018-04-10T16:24:27.254Z,8.07
2018-04-10T16:26:54.736Z,7.50
2018-04-10T16:29:22.208Z,9.40
2018-04-10T16:31:50.452Z,5.77
2018-04-10T16:34:17.916Z,4.30
2018-04-10T16:36:45.400Z,5.40
2018-04-10T16:39:13.626Z,5.97
2018-04-10T16:41:41.114Z,6.37
2018-04-10T16:44:09.351Z,7.03
2018-04-10T16:46:36.832Z,8.17
2018-04-10T16:49:04.300Z,5.37
2018-04-10T16:51:31.806Z,6.27
2018-04-10T16:53:59.275Z,5.20
2018-04-10T16:56:26.740Z,7.43
2018-04-10T16:58:54.229Z,7.90
2018-04-10T17:01:22.468Z,5.47
2018-04-10T17:03:49.960Z,7.50
2018-04-10T17:06:18.214Z,10.40
2018-04-10T17:08:46.472Z,5.10
2018-04-10T17:11:13.936Z,6.77
2018-04-10T17:13:41.412Z,4.23
2018-04-10T17:16:09.644Z,7.40
2018-04-10T17:18:37.120Z,5.83
2018-04-10T17:21:04.596Z,6.67
2018-04-10T17:23:32.909Z,16.17
2018-04-10T17:26:00.380Z,23.70
2018-04-10T17:28:27.882Z,18.70
2018-04-10T17:30:55.344Z,19.03
2018-04-10T17:33:23.592Z,18.40
2018-04-10T17:35:51.068Z,17.77
2018-04-10T17:38:19.332Z,17.47
2018-04-10T17:40:46.812Z,11.17
2018-04-10T17:43:15.056Z,12.57
2018-04-10T17:45:42.537Z,12.73
2018-04-10T17:48:10.770Z,12.30
2018-04-10T17:50:38.271Z,12.53
2018-04-10T17:53:06.509Z,14.70
2018-04-10T17:55:33.993Z,11.93
2018-04-10T17:58:01.456Z,17.83
2018-04-10T18:00:29.063Z,11.47
2018-04-10T18:02:56.570Z,12.53
2018-04-10T18:05:24.069Z,14.90
2018-04-10T18:07:51.539Z,14.27
2018-04-10T18:10:19.027Z,13.60
2018-04-10T18:12:47.277Z,17.73
2018-04-10T18:15:14.766Z,13.47
2018-04-10T18:17:43.012Z,16.57
2018-04-10T18:20:10.480Z,11.77
2018-04-10T18:22:37.972Z,17.60
2018-04-10T18:25:05.448Z,16.83
2018-04-10T18:27:32.928Z,15.27
2018-04-10T18:30:00.397Z,14.67
2018-04-10T18:32:27.888Z,16.07
2018-04-10T18:34:56.124Z,14.53
2018-04-10T18:37:23.608Z,13.77
2018-04-10T18:39:51.075Z,20.57
2018-04-10T18:42:19.327Z,20.73
2018-04-10T18:44:46.796Z,18.77
2018-04-10T18:47:14.301Z,16.00
2018-04-10T18:49:41.804Z,14.53
2018-04-10T18:52:09.292Z,17.80
2018-04-10T18:54:36.768Z,17.23
2018-04-10T18:57:04.249Z,15.27
2018-04-10T18:59:31.732Z,16.40
2018-04-10T19:01:59.233Z,18.13
2018-04-10T19:04:26.792Z,19.73
2018-04-10T19:06:54.267Z,16.40
2018-04-10T19:09:21.752Z,16.63
2018-04-10T19:11:49.263Z,13.37
2018-04-10T19:14:16.744Z,14.23
2018-04-10T19:16:44.208Z,12.50
2018-04-10T19:19:11.720Z,13.80
2018-04-10T19:21:39.192Z,12.57
2018-04-10T19:24:06.691Z,11.57
2018-04-10T19:26:34.160Z,12.53
2018-04-10T19:29:02.412Z,10.03
2018-04-10T19:31:29.922Z,9.63
2018-04-10T19:33:58.563Z,9.63
2018-04-10T19:36:26.264Z,10.17
2018-04-10T19:38:53.858Z,10.67
2018-04-10T19:41:21.322Z,9.80
2018-04-10T19:43:49.747Z,9.40
2018-04-10T19:46:17.997Z,14.33
2018-04-10T19:48:45.468Z,10.80
2018-04-10T19:51:12.948Z,9.97
2018-04-10T19:53:40.449Z,10.27
2018-04-10T19:56:07.940Z,11.27
2018-04-10T19:58:35.410Z,8.87
2018-04-10T20:01:02.899Z,11.53
2018-04-10T20:03:30.366Z,9.07
2018-04-10T20:05:57.852Z,9.57
2018-04-10T20:08:26.105Z,10.20
2018-04-10T20:10:53.588Z,10.37
2018-04-10T20:13:21.824Z,10.17
2018-04-10T20:15:49.319Z,13.67
2018-04-10T20:18:16.788Z,10.10
2018-04-10T20:20:44.268Z,10.87
2018-04-10T20:23:11.757Z,12.90
2018-04-10T20:25:39.249Z,13.23
2018-04-10T20:28:07.504Z,13.37
2018-04-10T20:30:34.972Z,13.70
2018-04-10T20:33:03.232Z,10.10
2018-04-10T20:35:30.696Z,8.90
2018-04-10T20:37:58.951Z,13.23
2018-04-10T20:40:26.413Z,8.50
2018-04-10T20:42:53.891Z,5.67
2018-04-10T20:45:22.195Z,8.50
2018-04-10T20:47:49.685Z,5.43
2018-04-10T20:50:17.148Z,2.97
2018-04-10T20:52:44.642Z,4.00
2018-04-10T20:55:12.876Z,2.00
2018-04-10T20:57:40.352Z,3.10
2018-04-10T21:00:07.822Z,1.93
2018-04-10T21:02:36.064Z,3.87
2018-04-10T21:05:05.045Z,1.57
2018-04-10T21:07:32.537Z,1.87
2018-04-10T21:10:00.769Z,2.53
2018-04-10T21:12:28.232Z,2.53
2018-04-10T21:14:55.720Z,2.37
2018-04-10T21:17:23.180Z,1.63
2018-04-10T21:19:50.671Z,2.00
2018-04-10T21:22:18.136Z,1.53
2018-04-10T21:24:45.616Z,3.60
2018-04-10T21:27:13.092Z,2.60
2018-04-10T21:29:40.573Z,1.50
2018-04-10T21:32:08.077Z,2.40
2018-04-10T21:34:35.552Z,1.57
2018-04-10T21:37:04.520Z,3.30
2018-04-10T21:39:32.005Z,1.33
2018-04-10T21:41:59.484Z,2.60
2018-04-10T21:44:27.727Z,1.73
2018-04-10T21:46:55.196Z,2.63
2018-04-10T21:49:22.692Z,4.03
2018-04-10T21:51:50.157Z,3.43
2018-04-10T21:54:17.624Z,2.77
2018-04-10T21:56:45.101Z,2.30
2018-04-10T21:59:12.560Z,2.60
2018-04-10T22:01:40.040Z,3.50
2018-04-10T22:04:08.278Z,2.57
2018-04-10T22:06:35.760Z,3.67
2018-04-10T22:09:03.224Z,4.37
2018-04-10T22:11:31.480Z,3.60
2018-04-10T22:13:58.949Z,2.40
2018-04-10T22:16:26.428Z,5.77
2018-04-10T22:18:54.660Z,5.43
2018-04-10T22:21:22.136Z,2.50
2018-04-10T22:23:49.601Z,3.80
2018-04-10T22:26:17.853Z,2.57
2018-04-10T22:28:46.081Z,2.27
2018-04-10T22:31:13.564Z,2.67
2018-04-10T22:33:41.066Z,1.77
2018-04-10T22:36:08.529Z,1.70
2018-04-10T22:38:36.076Z,2.23
2018-04-10T22:41:03.540Z,1.77
2018-04-10T22:43:31.016Z,2.57
2018-04-10T22:45:58.484Z,1.97
2018-04-10T22:48:25.968Z,1.90
2018-04-10T22:50:54.196Z,3.67
2018-04-10T22:53:21.689Z,1.57
2018-04-10T22:55:49.152Z,1.70
2018-04-10T22:58:17.396Z,3.70
2018-04-10T23:00:45.839Z,2.60
2018-04-10T23:03:13.329Z,3.30
2018-04-10T23:05:40.800Z,2.97
2018-04-10T23:08:08.288Z,3.23
2018-04-10T23:10:36.516Z,3.07
2018-04-10T23:13:04.321Z,4.90
2018-04-10T23:15:32.573Z,3.10
2018-04-10T23:18:00.044Z,4.80
2018-04-10T23:20:27.542Z,4.07
2018-04-10T23:22:55.780Z,3.50
2018-04-10T23:25:24.773Z,5.47
2018-04-10T23:27:52.236Z,2.10
2018-04-10T23:30:19.721Z,2.00
2018-04-10T23:32:47.197Z,4.27
2018-04-10T23:35:14.677Z,3.43
2018-04-10T23:37:42.144Z,2.40
2018-04-10T23:40:09.628Z,5.80
2018-04-10T23:42:37.092Z,4.90
2018-04-10T23:45:04.572Z,3.67
2018-04-10T23:47:32.035Z,2.80
2018-04-10T23:49:59.516Z,3.33
2018-04-10T23:52:26.981Z,3.23
2018-04-10T23:54:54.778Z,5.30
2018-04-10T23:57:22.237Z,5.47
2018-04-10T23:59:50.493Z,3.00
